EDLW

Dortmund Airport

Dortmund, Germany
TAF EDLW 181700Z 1818/1918 VRB03KT CAVOK TEMPO 1912/1918 04007KT
Issued Valid From Valid To
Jul-18 @ 17:00 UTC
(5 hours ago)
Jul-18 @ 18:00 UTC
(4 hours ago)
Jul-19 @ 18:00 UTC
(in 20 hours)
Jul-18 @ 18:00 to Jul-19 @ 18:00
TAF EDLW 181700Z 1818/1918 VRB03KT CAVOK
Wind Visibility Clouds Conditions
Variable at 3 knots 10,000+ meters
  • No significant clouds
Temporary Jul-19 @ 12:00 to Jul-19 @ 18:00
TEMPO 1912/1918 04007KT
Wind
40° at 7 knots
TAF EDLW 181700Z 1818/1918 VRB03KT CAVOK TEMPO 1912/1918 04007KT
Issued Jul-18 @ 17:00 UTC
(5 hours ago)
Valid From Jul-18 @ 18:00 UTC
(4 hours ago)
Valid To Jul-19 @ 18:00 UTC
(in 20 hours)
Jul-18 @ 18:00 - Jul-19 @ 18:00
Wind Visibility
Variable at 3 knots 10,000+ meters
Clouds
  • No significant clouds
Conditions
Temporary Jul-19 @ 12:00 - Jul-19 @ 18:00
Wind
40° at 7 knots